createdAt,value
2018-08-22T00:00:30.303Z,97879.56
2018-08-22T00:02:59.057Z,97882.42
2018-08-22T00:05:27.776Z,97873.95
2018-08-22T00:07:56.999Z,97885.78
2018-08-22T00:10:25.808Z,97881.19
2018-08-22T00:12:55.654Z,97886.30
2018-08-22T00:15:24.350Z,97882.32
2018-08-22T00:17:53.568Z,97880.58
2018-08-22T00:20:22.228Z,97879.58
2018-08-22T00:22:51.001Z,97876.56
2018-08-22T00:25:19.638Z,97879.42
2018-08-22T00:27:48.284Z,97879.38
2018-08-22T00:30:16.871Z,97875.52
2018-08-22T00:32:45.468Z,97871.55
2018-08-22T00:35:14.245Z,97870.12
2018-08-22T00:37:42.918Z,97870.52
2018-08-22T00:40:12.180Z,97871.47
2018-08-22T00:42:41.454Z,97873.77
2018-08-22T00:45:10.692Z,97870.75
2018-08-22T00:47:39.860Z,97875.28
2018-08-22T00:50:08.659Z,97871.41
2018-08-22T00:52:37.267Z,97864.92
2018-08-22T00:55:06.012Z,97869.52
2018-08-22T00:57:34.769Z,97868.61
2018-08-22T01:00:04.184Z,97865.86
2018-08-22T01:02:33.311Z,97862.02
2018-08-22T01:05:02.658Z,97853.42
2018-08-22T01:07:32.755Z,97859.85
2018-08-22T01:10:03.798Z,97860.22
2018-08-22T01:12:33.127Z,97859.06
2018-08-22T01:15:02.356Z,97860.52
2018-08-22T01:17:31.685Z,97861.89
2018-08-22T01:20:00.902Z,97862.10
2018-08-22T01:22:30.305Z,97859.55
2018-08-22T01:25:00.424Z,97854.94
2018-08-22T01:27:29.931Z,97855.52
2018-08-22T01:29:59.737Z,97855.94
2018-08-22T01:32:29.254Z,97853.06
2018-08-22T01:34:59.122Z,97854.80
2018-08-22T01:37:27.787Z,97847.00
2018-08-22T01:39:56.650Z,97843.38
2018-08-22T01:42:26.095Z,97849.77
2018-08-22T01:44:55.220Z,97850.23
2018-08-22T01:47:23.806Z,97853.84
2018-08-22T01:49:53.055Z,97846.86
2018-08-22T01:52:21.784Z,97855.41
2018-08-22T01:54:50.850Z,97853.89
2018-08-22T01:57:20.734Z,97850.20
2018-08-22T01:59:49.954Z,97851.25
2018-08-22T02:02:18.611Z,97846.91
2018-08-22T02:04:47.355Z,97850.95
2018-08-22T02:07:16.129Z,97845.62
2018-08-22T02:09:44.765Z,97847.62
2018-08-22T02:12:14.044Z,97848.28
2018-08-22T02:14:42.700Z,97848.06
2018-08-22T02:17:11.750Z,97846.79
2018-08-22T02:19:40.380Z,97844.09
2018-08-22T02:22:09.120Z,97847.62
2018-08-22T02:24:38.820Z,97838.00
2018-08-22T02:27:08.900Z,97839.51
2018-08-22T02:29:38.271Z,97840.82
2018-08-22T02:32:08.098Z,97840.84
2018-08-22T02:34:37.868Z,97838.83
2018-08-22T02:37:08.533Z,97829.73
2018-08-22T02:39:38.402Z,97836.52
2018-08-22T02:42:07.047Z,97839.32
2018-08-22T02:44:35.624Z,97835.30
2018-08-22T02:47:05.185Z,97834.06
2018-08-22T02:49:33.800Z,97829.81
2018-08-22T02:52:02.428Z,97833.41
2018-08-22T02:54:31.046Z,97831.91
2018-08-22T02:57:00.152Z,97833.11
2018-08-22T02:59:29.546Z,97827.73
2018-08-22T03:01:58.242Z,97829.67
2018-08-22T03:04:27.215Z,97828.44
2018-08-22T03:06:56.437Z,97828.66
2018-08-22T03:09:25.196Z,97826.58
2018-08-22T03:11:54.247Z,97825.43
2018-08-22T03:14:23.427Z,97830.33
2018-08-22T03:16:52.423Z,97824.91
2018-08-22T03:19:21.116Z,97829.72
2018-08-22T03:21:50.686Z,97821.95
2018-08-22T03:24:20.016Z,97828.35
2018-08-22T03:26:49.271Z,97825.62
2018-08-22T03:29:17.922Z,97831.14
2018-08-22T03:31:47.291Z,97833.25
2018-08-22T03:34:16.537Z,97832.45
2018-08-22T03:36:46.129Z,97833.66
2018-08-22T03:39:15.175Z,97831.36
2018-08-22T03:41:44.252Z,97824.34
2018-08-22T03:44:13.713Z,97828.13
2018-08-22T03:46:43.040Z,97831.41
2018-08-22T03:49:11.960Z,97829.89
2018-08-22T03:51:44.352Z,97826.52
2018-08-22T03:54:13.993Z,97825.72
2018-08-22T03:56:43.496Z,97830.74
2018-08-22T03:59:12.675Z,97827.73
2018-08-22T04:01:41.856Z,97832.05
2018-08-22T04:04:11.124Z,97832.41
2018-08-22T04:06:40.193Z,97836.29
2018-08-22T04:09:09.323Z,97833.81
2018-08-22T04:11:38.480Z,97838.00
2018-08-22T04:14:07.166Z,97842.46
2018-08-22T04:16:36.207Z,97842.02
2018-08-22T04:19:05.753Z,97841.00
2018-08-22T04:21:34.600Z,97842.05
2018-08-22T04:24:04.160Z,97835.86
2018-08-22T04:26:33.346Z,97840.44
2018-08-22T04:29:03.807Z,97843.30
2018-08-22T04:31:32.662Z,97841.14
2018-08-22T04:34:01.373Z,97843.65
2018-08-22T04:36:30.046Z,97841.58
2018-08-22T04:38:59.499Z,97843.48
2018-08-22T04:41:28.165Z,97853.19
2018-08-22T04:43:56.895Z,97852.96
2018-08-22T04:46:26.168Z,97858.87
2018-08-22T04:48:55.313Z,97851.47
2018-08-22T04:51:24.700Z,97851.02
2018-08-22T04:53:53.272Z,97852.86
2018-08-22T04:56:22.397Z,97855.73
2018-08-22T04:58:51.774Z,97851.63
2018-08-22T05:01:20.540Z,97859.03
2018-08-22T05:03:49.862Z,97861.77
2018-08-22T05:06:18.495Z,97860.94
2018-08-22T05:08:47.204Z,97861.34
2018-08-22T05:11:15.889Z,97860.62
2018-08-22T05:13:45.080Z,97856.34
2018-08-22T05:16:13.772Z,97831.72
2018-08-22T05:18:43.067Z,97861.34
2018-08-22T05:21:11.713Z,97862.86
2018-08-22T05:23:40.481Z,97859.84
2018-08-22T05:26:09.421Z,97861.67
2018-08-22T05:28:38.683Z,97868.52
2018-08-22T05:31:07.924Z,97867.45
2018-08-22T05:33:36.646Z,97866.14
2018-08-22T05:36:05.576Z,97870.36
2018-08-22T05:38:34.996Z,97864.84
2018-08-22T05:41:04.142Z,97868.94
2018-08-22T05:43:32.868Z,97863.92
2018-08-22T05:46:01.629Z,97864.48
2018-08-22T05:48:30.820Z,97868.98
2018-08-22T05:51:00.160Z,97869.16
2018-08-22T05:53:30.997Z,97863.94
2018-08-22T05:56:00.581Z,97871.66
2018-08-22T05:58:31.577Z,97870.88
2018-08-22T06:01:01.229Z,97874.91
2018-08-22T06:03:30.911Z,97868.58
2018-08-22T06:05:59.607Z,97868.09
2018-08-22T06:08:30.005Z,97872.27
2018-08-22T06:10:59.530Z,97874.42
2018-08-22T06:13:29.950Z,97878.33
2018-08-22T06:16:00.774Z,97875.28
2018-08-22T06:18:29.530Z,97877.59
2018-08-22T06:20:58.152Z,97877.03
2018-08-22T06:23:27.027Z,97879.61
2018-08-22T06:25:56.184Z,97874.94
2018-08-22T06:28:25.160Z,97878.84
2018-08-22T06:30:53.826Z,97879.25
2018-08-22T06:33:23.319Z,97882.21
2018-08-22T06:35:52.688Z,97882.59
2018-08-22T06:38:21.522Z,97879.83
2018-08-22T06:40:50.770Z,97878.34
2018-08-22T06:43:20.034Z,97882.77
2018-08-22T06:45:49.078Z,97881.63
2018-08-22T06:48:18.469Z,97881.38
2018-08-22T06:50:47.669Z,97879.19
2018-08-22T06:53:16.705Z,97880.33
2018-08-22T06:55:46.185Z,97876.10
2018-08-22T06:58:15.535Z,97885.16
2018-08-22T07:00:45.153Z,97887.30
2018-08-22T07:03:14.355Z,97884.88
2018-08-22T07:05:44.699Z,97885.45
2018-08-22T07:08:13.758Z,97880.88
2018-08-22T07:10:43.044Z,97881.64
2018-08-22T07:13:12.800Z,97878.62
2018-08-22T07:15:42.865Z,97881.19
2018-08-22T07:18:11.621Z,97875.13
2018-08-22T07:20:40.766Z,97874.41
2018-08-22T07:23:15.205Z,97876.28
2018-08-22T07:25:44.457Z,97873.72
2018-08-22T07:28:14.121Z,97874.32
2018-08-22T07:30:43.118Z,97876.70
2018-08-22T07:33:11.829Z,97870.65
2018-08-22T07:35:41.125Z,97873.46
2018-08-22T07:38:09.866Z,97866.18
2018-08-22T07:40:39.198Z,97872.92
2018-08-22T07:43:09.330Z,97869.57
2018-08-22T07:45:38.043Z,97872.34
2018-08-22T07:48:07.967Z,97866.23
2018-08-22T07:50:42.045Z,97869.98
2018-08-22T07:53:10.905Z,97867.81
2018-08-22T07:55:41.801Z,97876.30
2018-08-22T07:58:12.978Z,97865.23
2018-08-22T08:00:41.791Z,97866.84
2018-08-22T08:03:10.634Z,97870.36
2018-08-22T08:05:40.059Z,97865.18
2018-08-22T08:08:09.152Z,97857.63
2018-08-22T08:10:38.529Z,97863.20
2018-08-22T08:13:16.183Z,97865.97
2018-08-22T08:15:44.892Z,97861.19
2018-08-22T08:18:14.925Z,97866.86
2018-08-22T08:20:43.980Z,97863.42
2018-08-22T08:23:12.800Z,97864.87
2018-08-22T08:25:41.405Z,97860.51
2018-08-22T08:28:10.529Z,97864.45
2018-08-22T08:30:39.333Z,97862.30
2018-08-22T08:33:08.467Z,97864.17
2018-08-22T08:35:38.515Z,97862.79
2018-08-22T08:38:07.135Z,97859.69
2018-08-22T08:40:36.164Z,97857.76
2018-08-22T08:43:04.824Z,97857.23
2018-08-22T08:45:33.448Z,97851.19
2018-08-22T08:48:02.105Z,97849.34
2018-08-22T08:50:30.851Z,97853.11
2018-08-22T08:52:59.590Z,97853.06
2018-08-22T08:55:28.491Z,97856.45
2018-08-22T08:57:57.831Z,97856.99
2018-08-22T09:00:26.455Z,97852.52
2018-08-22T09:02:55.251Z,97855.00
2018-08-22T09:05:24.261Z,97849.80
2018-08-22T09:07:53.447Z,97848.12
2018-08-22T09:10:22.398Z,97852.43
2018-08-22T09:12:51.152Z,97847.38
2018-08-22T09:15:19.908Z,97850.71
2018-08-22T09:17:48.478Z,97844.98
2018-08-22T09:20:17.659Z,97849.52
2018-08-22T09:22:46.663Z,97851.14
2018-08-22T09:25:15.787Z,97843.12
2018-08-22T09:27:44.714Z,97838.38
2018-08-22T09:30:13.973Z,97843.48
2018-08-22T09:32:43.783Z,97834.93
2018-08-22T09:35:13.803Z,97835.72
2018-08-22T09:37:43.002Z,97827.31
2018-08-22T09:40:11.856Z,97832.24
2018-08-22T09:42:41.108Z,97822.38
2018-08-22T09:45:11.006Z,97822.28
2018-08-22T09:47:40.244Z,97811.67
2018-08-22T09:50:09.412Z,97814.81
2018-08-22T09:52:37.992Z,97821.09
2018-08-22T09:55:07.969Z,97814.31
2018-08-22T09:57:37.661Z,97807.44
2018-08-22T10:00:12.730Z,97806.92
2018-08-22T10:02:42.340Z,97806.06
2018-08-22T10:05:12.419Z,97806.92
2018-08-22T10:07:41.696Z,97807.47
2018-08-22T10:10:11.778Z,97806.00
2018-08-22T10:12:40.546Z,97796.66
2018-08-22T10:15:09.209Z,97794.92
2018-08-22T10:17:38.416Z,97789.25
2018-08-22T10:20:07.546Z,97787.77
2018-08-22T10:22:36.625Z,97777.94
2018-08-22T10:25:05.714Z,97782.54
2018-08-22T10:27:35.156Z,97771.23
2018-08-22T10:30:05.453Z,97778.30
2018-08-22T10:32:34.731Z,97770.02
2018-08-22T10:35:04.107Z,97776.98
2018-08-22T10:37:33.612Z,97769.05
2018-08-22T10:40:02.411Z,97770.19
2018-08-22T10:42:32.343Z,97774.39
2018-08-22T10:45:01.535Z,97770.36
2018-08-22T10:47:30.794Z,97765.86
2018-08-22T10:49:59.943Z,97756.08
2018-08-22T10:52:29.331Z,97750.13
2018-08-22T10:54:59.423Z,97760.84
2018-08-22T10:57:28.723Z,97757.56
2018-08-22T10:59:58.084Z,97757.05
2018-08-22T11:02:27.105Z,97750.95
2018-08-22T11:04:56.444Z,97750.89
2018-08-22T11:07:26.609Z,97751.98
2018-08-22T11:09:55.962Z,97743.41
2018-08-22T11:12:25.264Z,97739.41
2018-08-22T11:14:54.661Z,97738.36
2018-08-22T11:17:24.390Z,97742.38
2018-08-22T11:19:53.768Z,97745.28
2018-08-22T11:22:33.894Z,97733.84
2018-08-22T11:25:13.930Z,97733.51
2018-08-22T11:27:53.590Z,97730.17
2018-08-22T11:30:33.417Z,97730.06
2018-08-22T11:33:13.775Z,97729.66
2018-08-22T11:35:41.709Z,97725.36
2018-08-22T11:38:10.547Z,97718.77
2018-08-22T11:40:39.491Z,97721.70
2018-08-22T11:43:08.251Z,97724.29
2018-08-22T11:45:36.837Z,97727.48
2018-08-22T11:48:05.591Z,97722.97
2018-08-22T11:50:34.200Z,97716.34
2018-08-22T11:53:02.811Z,97716.98
2018-08-22T11:55:31.610Z,97713.13
2018-08-22T11:58:00.334Z,97712.27
2018-08-22T12:00:29.051Z,97705.04
2018-08-22T12:02:57.787Z,97710.62
2018-08-22T12:05:26.583Z,97710.73
2018-08-22T12:07:55.225Z,97702.68
2018-08-22T12:10:28.207Z,97694.02
2018-08-22T12:12:56.863Z,97694.34
2018-08-22T12:15:25.554Z,97693.17
2018-08-22T12:17:54.208Z,97694.68
2018-08-22T12:20:23.138Z,97693.83
2018-08-22T12:22:51.888Z,97688.41
2018-08-22T12:25:25.733Z,97685.81
2018-08-22T12:27:54.549Z,97687.44
2018-08-22T12:30:23.223Z,97678.83
2018-08-22T12:32:51.892Z,97679.41
2018-08-22T12:35:20.505Z,97579.05
2018-08-22T12:37:49.331Z,97669.65
2018-08-22T12:40:18.504Z,97667.16
2018-08-22T12:42:47.126Z,97658.91
2018-08-22T12:45:16.503Z,97659.25
2018-08-22T12:47:45.221Z,97657.59
2018-08-22T12:50:14.497Z,97650.39
2018-08-22T12:52:43.278Z,97642.19
2018-08-22T12:55:12.276Z,97645.82
2018-08-22T12:57:40.889Z,97646.97
2018-08-22T13:00:09.650Z,97635.44
2018-08-22T13:02:38.264Z,97644.02
2018-08-22T13:05:06.927Z,97637.09
2018-08-22T13:07:35.591Z,97637.75
2018-08-22T13:10:04.405Z,97635.30
2018-08-22T13:12:34.178Z,97640.69
2018-08-22T13:15:02.883Z,97626.11
2018-08-22T13:17:31.545Z,97630.85
2018-08-22T13:20:00.273Z,97632.06
2018-08-22T13:22:28.965Z,97633.41
2018-08-22T13:24:57.615Z,97628.41
2018-08-22T13:27:26.397Z,97629.09
2018-08-22T13:29:55.750Z,97625.56
2018-08-22T13:32:24.957Z,97625.47
2018-08-22T13:34:53.656Z,97617.30
2018-08-22T13:37:22.438Z,97624.97
2018-08-22T13:39:51.618Z,97622.16
2018-08-22T13:42:20.410Z,97614.39
2018-08-22T13:44:48.859Z,97618.02
2018-08-22T13:47:17.501Z,97618.95
2018-08-22T13:49:46.262Z,97616.11
2018-08-22T13:52:14.899Z,97615.02
2018-08-22T13:54:43.568Z,97614.69
2018-08-22T13:57:12.506Z,97619.33
2018-08-22T13:59:41.247Z,97614.97
2018-08-22T14:02:09.929Z,97613.11
2018-08-22T14:04:38.706Z,97606.42
2018-08-22T14:07:08.002Z,97600.17
2018-08-22T14:09:36.609Z,97610.34
2018-08-22T14:12:05.354Z,97607.21
2018-08-22T14:14:34.050Z,97603.77
2018-08-22T14:17:02.644Z,97593.98
2018-08-22T14:19:31.267Z,97591.59
2018-08-22T14:21:59.998Z,97580.48
2018-08-22T14:24:28.688Z,97589.30
2018-08-22T14:26:58.023Z,97582.36
2018-08-22T14:29:26.699Z,97578.70
2018-08-22T14:31:55.286Z,97581.62
2018-08-22T14:34:23.995Z,97580.45
2018-08-22T14:36:52.663Z,97578.72
2018-08-22T14:39:21.683Z,97579.57
2018-08-22T14:41:50.228Z,97583.02
2018-08-22T14:44:18.948Z,97587.34
2018-08-22T14:46:47.569Z,97584.63
2018-08-22T14:49:16.491Z,97584.93
2018-08-22T14:51:45.236Z,97590.58
2018-08-22T14:54:13.969Z,97587.78
2018-08-22T14:56:42.562Z,97584.03
2018-08-22T14:59:11.279Z,97584.64
2018-08-22T15:01:46.602Z,97581.80
2018-08-22T15:04:16.095Z,97582.14
2018-08-22T15:06:44.718Z,97591.59
2018-08-22T15:09:19.665Z,97605.78
2018-08-22T15:11:49.023Z,97621.20
2018-08-22T15:14:17.724Z,97645.55
2018-08-22T15:16:46.753Z,97677.59
2018-08-22T15:19:15.391Z,97617.85
2018-08-22T15:21:44.340Z,97613.26
2018-08-22T15:24:13.060Z,97625.04
2018-08-22T15:26:41.734Z,97604.66
2018-08-22T15:29:10.524Z,97650.06
2018-08-22T15:31:39.289Z,97675.92
2018-08-22T15:34:08.049Z,97671.15
2018-08-22T15:36:37.924Z,97681.45
2018-08-22T15:39:08.287Z,97682.91
2018-08-22T15:41:37.026Z,97688.62
2018-08-22T15:44:05.798Z,97690.52
2018-08-22T15:46:34.566Z,97696.89
2018-08-22T15:49:03.792Z,97702.49
2018-08-22T15:51:32.439Z,97698.61
2018-08-22T15:54:14.144Z,97704.62
2018-08-22T15:56:43.052Z,97694.20
2018-08-22T15:59:12.507Z,97686.72
2018-08-22T16:01:41.805Z,97682.23
2018-08-22T16:04:11.131Z,97662.80
2018-08-22T16:06:40.140Z,97655.69
2018-08-22T16:09:16.194Z,97645.65
2018-08-22T16:11:45.503Z,97642.87
2018-08-22T16:14:14.145Z,97631.22
2018-08-22T16:16:42.925Z,97621.80
2018-08-22T16:19:12.139Z,97618.12
2018-08-22T16:21:41.286Z,97617.78
2018-08-22T16:24:10.575Z,97617.91
2018-08-22T16:26:40.211Z,97614.95
2018-08-22T16:29:09.078Z,97609.48
2018-08-22T16:31:43.057Z,97606.53
2018-08-22T16:34:12.464Z,97608.88
2018-08-22T16:36:41.284Z,97611.08
2018-08-22T16:39:10.527Z,97605.97
2018-08-22T16:41:39.473Z,97605.95
2018-08-22T16:44:08.283Z,97603.00
2018-08-22T16:46:37.005Z,97602.77
2018-08-22T16:49:05.843Z,97601.02
2018-08-22T16:51:34.601Z,97602.02
2018-08-22T16:54:09.402Z,97600.25
2018-08-22T16:56:38.388Z,97601.81
2018-08-22T16:59:15.381Z,97610.30
2018-08-22T17:01:48.735Z,97594.92
2018-08-22T17:04:17.583Z,97599.19
2018-08-22T17:06:48.240Z,97601.92
2018-08-22T17:09:16.875Z,97602.69
2018-08-22T17:11:46.420Z,97606.31
2018-08-22T17:14:15.394Z,97602.55
2018-08-22T17:16:44.595Z,97596.62
2018-08-22T17:19:13.910Z,97608.23
2018-08-22T17:22:15.203Z,97602.70
2018-08-22T17:28:01.295Z,97601.08
2018-08-22T17:30:49.779Z,97600.47
2018-08-22T17:34:27.233Z,97596.94
2018-08-22T17:37:14.281Z,97608.41
2018-08-22T17:40:11.985Z,97611.17
2018-08-22T17:43:06.752Z,97609.80
2018-08-22T17:56:27.470Z,97600.80
2018-08-22T17:59:04.068Z,97598.83
2018-08-22T18:02:13.786Z,97603.95
2018-08-22T18:21:23.761Z,97618.92
2018-08-22T18:23:57.708Z,97622.28
2018-08-22T18:26:32.142Z,97621.48
2018-08-22T18:29:04.152Z,97624.81
2018-08-22T18:31:35.701Z,97629.34
2018-08-22T18:34:07.179Z,97632.10
2018-08-22T18:36:37.886Z,97639.64
2018-08-22T18:39:12.528Z,97640.14
2018-08-22T18:41:45.109Z,97636.80
2018-08-22T18:44:19.545Z,97643.89
2018-08-22T18:46:52.648Z,97651.17
2018-08-22T18:54:45.625Z,97652.53
2018-08-22T18:57:18.354Z,97659.80
2018-08-22T18:59:58.040Z,97653.89
2018-08-22T19:02:35.104Z,97657.06
2018-08-22T19:05:21.606Z,97663.75
2018-08-22T19:08:10.999Z,97664.54
2018-08-22T19:13:44.305Z,97661.37
2018-08-22T19:19:32.160Z,97667.28
2018-08-22T19:25:07.486Z,97668.23
2018-08-22T19:27:39.874Z,97661.52
2018-08-22T19:30:18.672Z,97663.81
2018-08-22T19:37:50.312Z,97666.47
2018-08-22T19:40:23.990Z,97671.41
2018-08-22T19:42:56.922Z,97671.22
2018-08-22T19:45:37.935Z,97672.02
2018-08-22T19:48:12.419Z,97673.59
2018-08-22T19:50:46.137Z,97668.30
2018-08-22T19:53:19.343Z,97669.47
2018-08-22T19:55:51.662Z,97665.54
2018-08-22T19:58:28.981Z,97669.63
2018-08-22T20:01:02.069Z,97673.73
2018-08-22T20:03:35.783Z,97670.58
2018-08-22T20:06:20.316Z,97673.05
2018-08-22T20:09:00.142Z,97671.30
2018-08-22T20:11:29.643Z,97674.22
2018-08-22T20:14:01.260Z,97670.69
2018-08-22T20:16:30.135Z,97674.98
2018-08-22T20:19:09.202Z,97676.31
2018-08-22T20:21:40.055Z,97678.80
2018-08-22T20:24:13.061Z,97681.28
2018-08-22T20:26:55.797Z,97673.55
2018-08-22T20:29:32.955Z,97676.88
2018-08-22T20:32:04.117Z,97676.64
2018-08-22T20:34:46.350Z,97673.90
2018-08-22T20:37:15.963Z,97677.92
2018-08-22T20:39:45.331Z,97674.80
2018-08-22T20:42:14.791Z,97672.42
2018-08-22T20:44:43.461Z,97674.75
2018-08-22T20:47:12.134Z,97678.67
2018-08-22T20:49:41.688Z,97676.50
2018-08-22T20:52:11.885Z,97676.26
2018-08-22T20:54:40.509Z,97670.02
2018-08-22T20:57:10.523Z,97679.25
2018-08-22T20:59:39.499Z,97675.92
2018-08-22T21:02:09.112Z,97676.50
2018-08-22T21:04:38.481Z,97677.80
2018-08-22T21:07:07.731Z,97673.89
2018-08-22T21:09:36.917Z,97676.39
2018-08-22T21:12:06.295Z,97675.59
2018-08-22T21:14:35.767Z,97669.78
2018-08-22T21:17:04.344Z,97667.75
2018-08-22T21:19:37.228Z,97665.05
2018-08-22T21:22:20.513Z,97664.67
2018-08-22T21:24:49.534Z,97659.91
2018-08-22T21:27:18.920Z,97661.66
2018-08-22T21:29:48.211Z,97664.95
2018-08-22T21:32:18.068Z,97670.45
2018-08-22T21:34:51.190Z,97671.61
2018-08-22T21:37:26.021Z,97671.61
2018-08-22T21:40:07.614Z,97669.20
2018-08-22T21:42:36.799Z,97670.06
2018-08-22T21:45:06.723Z,97663.69
2018-08-22T21:47:36.028Z,97669.08
2018-08-22T21:50:06.683Z,97667.59
2018-08-22T21:53:04.320Z,97661.14
2018-08-22T21:55:38.278Z,97666.85
2018-08-22T21:58:07.753Z,97668.59
2018-08-22T22:00:36.925Z,97665.28
2018-08-22T22:03:05.858Z,97669.97
2018-08-22T22:05:43.941Z,97665.73
2018-08-22T22:08:18.260Z,97668.58
2018-08-22T22:10:47.720Z,97671.91
2018-08-22T22:13:16.778Z,97666.63
2018-08-22T22:15:56.530Z,97667.20
2018-08-22T22:18:26.492Z,97666.47
2018-08-22T22:21:08.118Z,97670.94
2018-08-22T22:23:51.503Z,97667.56
2018-08-22T22:26:22.145Z,97660.86
2018-08-22T22:28:50.992Z,97666.45
2018-08-22T22:31:19.640Z,97666.02
2018-08-22T22:34:07.837Z,97658.16
2018-08-22T22:36:37.285Z,97663.33
2018-08-22T22:39:13.293Z,97660.00
2018-08-22T22:41:44.106Z,97664.70
2018-08-22T22:44:13.980Z,97661.22
2018-08-22T22:46:42.783Z,97662.48
2018-08-22T22:49:11.706Z,97659.27
2018-08-22T22:51:42.208Z,97664.23
2018-08-22T22:54:12.244Z,97655.59
2018-08-22T22:56:40.882Z,97656.52
2018-08-22T22:59:09.553Z,97662.02
2018-08-22T23:01:38.980Z,97661.34
2018-08-22T23:04:08.417Z,97664.77
2018-08-22T23:06:40.140Z,97667.98
2018-08-22T23:09:09.403Z,97668.14
2018-08-22T23:11:39.013Z,97667.41
2018-08-22T23:14:07.841Z,97665.12
2018-08-22T23:16:36.498Z,97662.30
2018-08-22T23:19:11.397Z,97665.25
2018-08-22T23:21:40.031Z,97664.34
2018-08-22T23:24:17.536Z,97657.97
2018-08-22T23:26:48.033Z,97657.55
2018-08-22T23:29:16.690Z,97657.12
2018-08-22T23:31:45.505Z,97650.20
2018-08-22T23:34:19.765Z,97656.81
2018-08-22T23:36:49.284Z,97653.44
2018-08-22T23:39:18.697Z,97646.67
2018-08-22T23:41:49.038Z,97642.30
2018-08-22T23:44:17.683Z,97642.36
2018-08-22T23:46:46.345Z,97648.05
2018-08-22T23:49:15.726Z,97643.52
2018-08-22T23:51:50.555Z,97642.56
2018-08-22T23:54:20.496Z,97644.42
2018-08-22T23:56:54.134Z,97643.42
2018-08-22T23:59:23.878Z,97652.06
